Time;durP1;ratioP1;P1;durP2;ratioP2;P2;SDS_P1;SDS_P2;PMS_P1;PMS_P2;Temp;Humidity;BMP_temperature;BMP_pressure;BME280_temperature;BME280_humidity;BME280_pressure;Samples;Min_cycle;Max_cycle;Signal;HPM_P1;HPM_P2
2021/07/14 00:00:25;;;;;;;56.55;41.78;;;;;;;;;;5045764;28;20089;-73
2021/07/14 00:02:51;;;;;;;58.47;42.15;;;;;;;;;;5047989;28;20084;-74
2021/07/14 00:05:19;;;;;;;60.97;43.05;;;;;;;;;;5045560;28;20037;-73
2021/07/14 00:07:47;;;;;;;60.35;42.85;;;;;;;;;;5046407;28;20131;-73
2021/07/14 00:10:14;;;;;;;67.82;47.28;;;;;;;;;;5043756;28;20116;-73
2021/07/14 00:23:35;;;;;;;57.10;39.65;;;;;;;;;;5047221;28;20492;-73
2021/07/14 00:26:01;;;;;;;50.13;36.85;;;;;;;;;;5035236;28;20083;-73
2021/07/14 00:28:28;;;;;;;55.22;37.20;;;;;;;;;;5042699;28;20468;-73
2021/07/14 00:30:56;;;;;;;51.72;34.33;;;;;;;;;;5042739;28;20052;-73
2021/07/14 00:33:24;;;;;;;48.35;33.55;;;;;;;;;;5042256;28;20064;-73
2021/07/14 00:35:50;;;;;;;51.22;34.35;;;;;;;;;;5040555;28;20538;-73
2021/07/14 00:38:16;;;;;;;45.30;32.70;;;;;;;;;;5033460;28;20060;-73
2021/07/14 00:40:43;;;;;;;45.03;32.83;;;;;;;;;;5043572;28;20044;-73
2021/07/14 00:43:09;;;;;;;41.92;30.05;;;;;;;;;;5045893;28;20469;-73
2021/07/14 00:45:36;;;;;;;43.17;30.40;;;;;;;;;;5045765;28;20045;-73
2021/07/14 00:48:03;;;;;;;44.58;30.85;;;;;;;;;;5044297;28;20067;-73
2021/07/14 00:50:29;;;;;;;39.90;28.60;;;;;;;;;;5043200;28;20044;-73
2021/07/14 00:52:56;;;;;;;41.22;29.95;;;;;;;;;;5044308;28;20052;-73
2021/07/14 00:55:22;;;;;;;40.55;28.52;;;;;;;;;;5046390;28;20116;-73
2021/07/14 02:20:50;;;;;;;55.30;40.47;;;;;;;;;;5048373;28;20082;-73
2021/07/14 02:23:17;;;;;;;63.25;43.05;;;;;;;;;;5043858;28;20319;-73
2021/07/14 02:25:43;;;;;;;62.40;41.60;;;;;;;;;;5045098;28;20068;-73
2021/07/14 02:28:09;;;;;;;60.83;42.55;;;;;;;;;;5036316;28;20049;-73
2021/07/14 02:30:35;;;;;;;66.88;44.08;;;;;;;;;;5039807;28;20400;-73
2021/07/14 02:33:04;;;;;;;64.53;43.50;;;;;;;;;;5041070;28;20566;-73
2021/07/14 02:35:34;;;;;;;60.97;44.03;;;;;;;;;;5038172;28;20132;-73
2021/07/14 02:38:01;;;;;;;63.08;44.05;;;;;;;;;;5027054;28;20988;-73
2021/07/14 02:40:30;;;;;;;58.38;40.88;;;;;;;;;;5034113;28;20472;-73
2021/07/14 02:42:59;;;;;;;57.22;39.38;;;;;;;;;;5042539;28;20407;-73
2021/07/14 02:45:26;;;;;;;61.13;40.67;;;;;;;;;;5041502;28;20041;-73
2021/07/14 02:47:53;;;;;;;59.38;41.00;;;;;;;;;;5042111;28;20041;-73
2021/07/14 02:50:21;;;;;;;59.85;38.50;;;;;;;;;;5042330;28;20053;-73
2021/07/14 02:52:48;;;;;;;58.90;38.42;;;;;;;;;;5040724;28;20043;-73
2021/07/14 02:55:16;;;;;;;52.15;37.67;;;;;;;;;;5044115;28;20060;-73
2021/07/14 02:57:44;;;;;;;56.65;36.85;;;;;;;;;;5036514;28;20072;-73
2021/07/14 03:00:10;;;;;;;54.40;35.17;;;;;;;;;;5038872;28;20760;-73
2021/07/14 03:02:37;;;;;;;51.58;34.95;;;;;;;;;;5044396;28;20465;-73
2021/07/14 03:05:04;;;;;;;50.17;33.45;;;;;;;;;;5040150;28;20055;-73
2021/07/14 03:07:31;;;;;;;52.05;33.88;;;;;;;;;;5039058;28;20116;-73
2021/07/14 03:09:57;;;;;;;54.25;35.35;;;;;;;;;;5042004;28;20051;-73
2021/07/14 03:12:25;;;;;;;49.90;34.80;;;;;;;;;;5043980;28;20402;-73
2021/07/14 03:14:55;;;;;;;53.42;35.08;;;;;;;;;;5043964;28;20088;-73
2021/07/14 03:17:22;;;;;;;54.00;34.33;;;;;;;;;;5044789;28;20216;-73
2021/07/14 03:19:49;;;;;;;51.88;34.72;;;;;;;;;;5034142;28;20118;-73
2021/07/14 03:22:16;;;;;;;50.85;35.50;;;;;;;;;;5043709;28;20060;-73
2021/07/14 03:24:43;;;;;;;55.20;35.35;;;;;;;;;;5043992;28;20051;-73
2021/07/14 03:27:11;;;;;;;53.33;34.30;;;;;;;;;;5043856;28;20037;-73
2021/07/14 03:29:38;;;;;;;57.22;35.28;;;;;;;;;;5049965;28;20033;-73
2021/07/14 03:32:04;;;;;;;57.75;35.83;;;;;;;;;;5044768;28;20400;-73
2021/07/14 03:34:31;;;;;;;56.97;35.15;;;;;;;;;;5040084;28;20037;-73
2021/07/14 03:37:03;;;;;;;61.47;35.22;;;;;;;;;;5036931;28;20044;-73
2021/07/14 03:39:29;;;;;;;61.72;36.25;;;;;;;;;;5051937;28;20037;-73
2021/07/14 03:41:56;;;;;;;53.20;34.50;;;;;;;;;;5051416;28;20146;-73
2021/07/14 03:44:23;;;;;;;57.78;37.67;;;;;;;;;;5051553;28;20041;-73
2021/07/14 03:46:49;;;;;;;58.30;36.72;;;;;;;;;;5046159;28;20040;-73
2021/07/14 03:49:15;;;;;;;56.22;35.50;;;;;;;;;;5047388;28;20373;-73
2021/07/14 03:51:43;;;;;;;57.63;35.92;;;;;;;;;;5045753;28;20097;-73
2021/07/14 03:54:11;;;;;;;52.53;35.30;;;;;;;;;;5043149;28;20112;-73
2021/07/14 03:56:38;;;;;;;55.92;36.80;;;;;;;;;;5042276;28;20129;-73
2021/07/14 03:59:04;;;;;;;60.53;36.45;;;;;;;;;;5049287;28;20049;-73
2021/07/14 04:01:31;;;;;;;64.85;37.72;;;;;;;;;;5047599;28;20056;-73
2021/07/14 04:03:57;;;;;;;54.83;36.70;;;;;;;;;;5046280;28;20033;-73
2021/07/14 04:06:24;;;;;;;58.55;38.10;;;;;;;;;;5047608;28;20049;-73
2021/07/14 04:09:08;;;;;;;57.50;38.25;;;;;;;;;;5046623;28;20139;-73
2021/07/14 04:11:34;;;;;;;;;;;;;;;;;;5042078;28;20481;-73
2021/07/14 04:14:00;;;;;;;59.63;38.03;;;;;;;;;;5047563;28;19920;-73
2021/07/14 04:16:27;;;;;;;59.08;37.92;;;;;;;;;;5043269;28;20064;-73
2021/07/14 04:18:53;;;;;;;57.65;37.10;;;;;;;;;;5043831;28;20072;-73
2021/07/14 04:21:20;;;;;;;59.15;38.03;;;;;;;;;;5040697;28;20183;-73
2021/07/14 04:23:46;;;;;;;53.78;38.28;;;;;;;;;;5046638;28;20033;-73
2021/07/14 04:26:13;;;;;;;55.00;36.88;;;;;;;;;;5041572;28;20136;-73
2021/07/14 04:28:39;;;;;;;56.92;36.65;;;;;;;;;;5038175;28;20454;-73
2021/07/14 04:31:05;;;;;;;53.28;35.35;;;;;;;;;;5043267;28;20411;-72
2021/07/14 04:33:32;;;;;;;54.63;36.05;;;;;;;;;;5047856;28;20068;-73
2021/07/14 04:35:59;;;;;;;54.90;38.92;;;;;;;;;;5045826;28;20127;-73
2021/07/14 04:38:25;;;;;;;56.55;38.03;;;;;;;;;;5034869;28;20045;-73
2021/07/14 04:40:51;;;;;;;57.53;36.95;;;;;;;;;;5039721;28;20114;-73
2021/07/14 04:43:18;;;;;;;51.58;37.20;;;;;;;;;;5039539;28;20044;-73
2021/07/14 04:45:44;;;;;;;53.95;37.05;;;;;;;;;;5041125;28;20127;-73
2021/07/14 04:48:10;;;;;;;54.00;36.58;;;;;;;;;;5043371;28;20111;-73
2021/07/14 04:50:37;;;;;;;53.53;35.85;;;;;;;;;;5038384;28;20045;-73
2021/07/14 04:53:03;;;;;;;56.65;34.90;;;;;;;;;;5041800;28;20125;-73
2021/07/14 04:55:30;;;;;;;54.03;37.85;;;;;;;;;;5047471;28;20044;-75
2021/07/14 04:57:56;;;;;;;52.15;36.42;;;;;;;;;;5049229;28;20041;-73
2021/07/14 05:00:22;;;;;;;47.22;33.97;;;;;;;;;;5040805;28;20040;-73
2021/07/14 05:02:49;;;;;;;55.25;34.75;;;;;;;;;;5038744;28;20069;-73
2021/07/14 05:05:15;;;;;;;44.92;34.13;;;;;;;;;;5037396;28;20097;-74
2021/07/14 05:07:42;;;;;;;51.78;34.97;;;;;;;;;;5038692;28;20105;-76
2021/07/14 05:10:09;;;;;;;48.85;32.35;;;;;;;;;;5038526;28;20115;-76
2021/07/14 05:12:36;;;;;;;43.47;33.78;;;;;;;;;;5043335;28;20041;-76
2021/07/14 05:15:04;;;;;;;50.63;33.50;;;;;;;;;;5043325;28;20052;-76
2021/07/14 05:17:30;;;;;;;52.20;35.40;;;;;;;;;;5041821;28;20045;-77
2021/07/14 05:19:57;;;;;;;54.90;36.05;;;;;;;;;;5040567;28;20128;-78
2021/07/14 05:22:23;;;;;;;53.00;34.30;;;;;;;;;;5038787;28;20049;-77
2021/07/14 05:24:49;;;;;;;51.92;35.15;;;;;;;;;;5041606;28;20097;-77
2021/07/14 05:27:16;;;;;;;49.08;33.80;;;;;;;;;;5039580;28;20135;-78
2021/07/14 05:29:43;;;;;;;52.58;35.47;;;;;;;;;;5040670;28;20127;-76
2021/07/14 05:32:09;;;;;;;54.58;34.42;;;;;;;;;;5046189;28;20091;-76
2021/07/14 05:34:35;;;;;;;48.42;34.53;;;;;;;;;;5042325;28;20045;-76
2021/07/14 05:37:01;;;;;;;51.72;33.78;;;;;;;;;;5045470;28;20393;-76
2021/07/14 05:39:27;;;;;;;51.83;36.13;;;;;;;;;;5038744;28;20485;-76
2021/07/14 05:41:54;;;;;;;44.88;33.53;;;;;;;;;;5038998;28;20053;-75
2021/07/14 05:44:20;;;;;;;53.85;35.17;;;;;;;;;;5040976;28;20056;-76
2021/07/14 05:46:46;;;;;;;51.90;36.25;;;;;;;;;;5035185;28;20072;-76
2021/07/14 05:49:13;;;;;;;51.70;34.40;;;;;;;;;;5031996;28;20480;-77
2021/07/14 05:51:39;;;;;;;46.90;35.35;;;;;;;;;;5042646;28;20029;-77
2021/07/14 05:54:05;;;;;;;48.40;33.95;;;;;;;;;;5040772;28;20107;-77
2021/07/14 05:56:32;;;;;;;42.67;33.05;;;;;;;;;;5034958;28;20045;-76
2021/07/14 05:58:58;;;;;;;48.75;34.00;;;;;;;;;;5042387;28;20041;-76
2021/07/14 06:01:24;;;;;;;47.33;35.47;;;;;;;;;;5047302;28;20536;-76
2021/07/14 06:03:50;;;;;;;49.22;35.42;;;;;;;;;;5047646;28;20078;-76
2021/07/14 06:06:17;;;;;;;46.00;32.63;;;;;;;;;;5040283;28;20086;-76
2021/07/14 06:08:43;;;;;;;44.85;33.40;;;;;;;;;;5030667;28;20041;-76
2021/07/14 06:11:10;;;;;;;43.13;34.03;;;;;;;;;;5037016;28;20046;-76
2021/07/14 06:13:37;;;;;;;49.13;32.78;;;;;;;;;;5039443;28;20075;-76
2021/07/14 06:16:04;;;;;;;50.85;33.28;;;;;;;;;;5035837;28;20045;-76
2021/07/14 06:18:30;;;;;;;44.38;31.83;;;;;;;;;;5041662;28;20029;-76
2021/07/14 06:20:56;;;;;;;48.00;33.45;;;;;;;;;;5043390;28;20056;-77
2021/07/14 06:23:22;;;;;;;44.90;32.28;;;;;;;;;;5042041;28;20037;-77
2021/07/14 06:25:49;;;;;;;43.30;32.55;;;;;;;;;;5035495;28;20071;-77
2021/07/14 06:28:16;;;;;;;36.72;30.60;;;;;;;;;;5033393;28;20126;-77
2021/07/14 06:30:45;;;;;;;44.30;31.73;;;;;;;;;;5037946;28;20040;-76
2021/07/14 06:33:12;;;;;;;42.20;32.22;;;;;;;;;;5036870;28;20033;-77
2021/07/14 06:35:38;;;;;;;40.55;31.60;;;;;;;;;;5039392;28;20045;-77
2021/07/14 06:38:04;;;;;;;42.63;32.03;;;;;;;;;;5033068;28;20072;-77
2021/07/14 06:40:33;;;;;;;46.67;32.50;;;;;;;;;;5036842;28;20041;-77
2021/07/14 06:43:00;;;;;;;40.20;29.85;;;;;;;;;;5042543;28;20404;-77
2021/07/14 06:45:27;;;;;;;45.17;31.65;;;;;;;;;;5035944;28;20045;-77
2021/07/14 06:47:54;;;;;;;35.78;30.23;;;;;;;;;;5036294;28;20086;-77
2021/07/14 06:50:21;;;;;;;41.00;31.45;;;;;;;;;;5034845;28;20467;-77
2021/07/14 06:52:47;;;;;;;36.47;28.63;;;;;;;;;;5041851;28;20048;-77
2021/07/14 06:55:13;;;;;;;43.10;29.92;;;;;;;;;;5041968;28;20045;-77
2021/07/14 06:57:41;;;;;;;42.35;29.13;;;;;;;;;;5046319;28;20037;-76
2021/07/14 07:00:09;;;;;;;37.45;27.50;;;;;;;;;;5042001;28;20127;-77
2021/07/14 07:02:35;;;;;;;33.33;27.30;;;;;;;;;;5043850;28;20075;-77
2021/07/14 07:05:02;;;;;;;35.13;26.85;;;;;;;;;;5038016;28;20465;-77
2021/07/14 07:07:28;;;;;;;36.63;25.58;;;;;;;;;;5045325;28;20064;-77
2021/07/14 07:09:55;;;;;;;36.20;25.85;;;;;;;;;;5046500;28;20048;-77
2021/07/14 07:12:21;;;;;;;36.08;25.45;;;;;;;;;;5048978;28;20041;-77
2021/07/14 07:14:48;;;;;;;42.53;24.60;;;;;;;;;;5049086;28;20102;-80
2021/07/14 07:17:14;;;;;;;39.83;26.15;;;;;;;;;;5048762;28;20045;-78
2021/07/14 07:19:40;;;;;;;32.88;24.98;;;;;;;;;;5035792;28;20120;-79
2021/07/14 07:22:07;;;;;;;38.83;24.95;;;;;;;;;;5039682;28;20053;-78
2021/07/14 07:24:33;;;;;;;37.45;24.42;;;;;;;;;;5047067;28;20060;-79
2021/07/14 07:27:00;;;;;;;34.40;24.67;;;;;;;;;;5046107;28;20045;-78
2021/07/14 07:29:27;;;;;;;33.95;25.40;;;;;;;;;;5044950;28;20033;-79
2021/07/14 07:31:53;;;;;;;43.15;27.13;;;;;;;;;;5049196;28;20037;-79
2021/07/14 07:34:19;;;;;;;33.85;24.77;;;;;;;;;;5048855;28;20045;-78
2021/07/14 07:36:46;;;;;;;37.65;25.80;;;;;;;;;;5035375;28;20064;-77
2021/07/14 07:39:14;;;;;;;34.83;23.15;;;;;;;;;;5046427;28;20045;-77
2021/07/14 07:41:40;;;;;;;33.38;21.77;;;;;;;;;;5047017;28;20052;-79
2021/07/14 07:44:07;;;;;;;35.17;22.73;;;;;;;;;;5042884;28;20045;-78
2021/07/14 07:46:35;;;;;;;38.47;23.58;;;;;;;;;;5041317;28;20345;-77
2021/07/14 07:49:02;;;;;;;34.72;22.45;;;;;;;;;;5034746;28;20033;-77
2021/07/14 07:51:28;;;;;;;30.17;20.85;;;;;;;;;;5033448;28;20449;-76
2021/07/14 07:53:54;;;;;;;29.85;20.85;;;;;;;;;;5038273;28;20040;-76
2021/07/14 07:56:21;;;;;;;34.20;21.00;;;;;;;;;;5039313;28;20125;-76
2021/07/14 07:58:47;;;;;;;31.00;21.33;;;;;;;;;;5041425;28;20047;-76
2021/07/14 08:01:13;;;;;;;33.20;21.65;;;;;;;;;;5040743;28;20110;-76
2021/07/14 08:03:40;;;;;;;34.65;21.45;;;;;;;;;;5032910;28;20045;-76
2021/07/14 08:06:07;;;;;;;28.85;21.77;;;;;;;;;;5041171;28;20808;-76
2021/07/14 08:08:33;;;;;;;39.22;22.25;;;;;;;;;;5040787;28;20068;-76
2021/07/14 08:10:59;;;;;;;37.22;23.63;;;;;;;;;;5044656;28;20121;-76
2021/07/14 08:13:26;;;;;;;32.10;21.75;;;;;;;;;;5044991;28;20037;-76
2021/07/14 08:15:55;;;;;;;34.00;23.10;;;;;;;;;;5048001;28;20063;-76
2021/07/14 08:18:22;;;;;;;33.90;22.52;;;;;;;;;;5047830;28;20484;-76
2021/07/14 08:20:48;;;;;;;35.25;23.70;;;;;;;;;;5045350;28;20354;-76
2021/07/14 08:23:15;;;;;;;33.97;23.75;;;;;;;;;;5046672;28;20040;-76
2021/07/14 08:25:41;;;;;;;36.45;24.42;;;;;;;;;;5038671;28;20457;-76
2021/07/14 08:28:07;;;;;;;36.72;24.23;;;;;;;;;;5049384;28;20047;-76
2021/07/14 08:30:34;;;;;;;39.53;24.95;;;;;;;;;;5047362;28;20049;-76
2021/07/14 08:33:01;;;;;;;32.15;24.65;;;;;;;;;;5038410;28;20393;-76
2021/07/14 08:35:27;;;;;;;36.17;24.60;;;;;;;;;;5041745;28;20353;-76
2021/07/14 08:37:53;;;;;;;33.40;24.10;;;;;;;;;;5041698;28;20040;-76
2021/07/14 08:40:20;;;;;;;33.75;24.13;;;;;;;;;;5042260;28;20072;-76
2021/07/14 08:42:48;;;;;;;31.25;24.42;;;;;;;;;;5042646;28;20044;-76
2021/07/14 08:45:16;;;;;;;28.88;23.30;;;;;;;;;;5040362;28;20220;-76
2021/07/14 08:47:44;;;;;;;33.47;25.00;;;;;;;;;;5041456;28;20038;-76
2021/07/14 08:50:11;;;;;;;31.65;23.70;;;;;;;;;;5033980;28;20046;-76
2021/07/14 08:52:42;;;;;;;29.33;23.27;;;;;;;;;;5042868;28;20147;-75
2021/07/14 08:55:09;;;;;;;31.58;24.17;;;;;;;;;;5037709;28;20460;-76
2021/07/14 08:57:35;;;;;;;30.27;22.85;;;;;;;;;;5040964;28;20481;-76
2021/07/14 09:00:01;;;;;;;32.80;25.38;;;;;;;;;;5039959;28;20041;-76
2021/07/14 09:02:28;;;;;;;36.92;25.17;;;;;;;;;;5035758;28;20190;-76
2021/07/14 09:04:54;;;;;;;34.65;26.13;;;;;;;;;;5038434;28;20052;-76
2021/07/14 09:07:20;;;;;;;34.78;27.13;;;;;;;;;;5038619;28;20417;-76
2021/07/14 09:09:47;;;;;;;34.20;25.98;;;;;;;;;;5045513;28;20040;-76
2021/07/14 09:12:13;;;;;;;38.35;27.58;;;;;;;;;;5037613;28;20151;-76
2021/07/14 09:14:42;;;;;;;35.50;26.73;;;;;;;;;;5034496;28;20045;-76
2021/07/14 09:17:22;;;;;;;34.70;25.40;;;;;;;;;;5033933;28;20038;-76
2021/07/14 09:19:49;;;;;;;34.92;25.30;;;;;;;;;;5038502;28;20073;-76
2021/07/14 09:22:21;;;;;;;33.63;25.00;;;;;;;;;;5038999;28;20056;-76
2021/07/14 09:24:48;;;;;;;28.27;23.63;;;;;;;;;;5042589;28;20404;-76
2021/07/14 09:27:16;;;;;;;29.77;25.02;;;;;;;;;;5044293;28;20045;-76
2021/07/14 09:30:02;;;;;;;32.78;25.27;;;;;;;;;;5035079;28;20041;-76
2021/07/14 09:32:42;;;;;;;32.20;24.17;;;;;;;;;;5042573;28;20106;-76
2021/07/14 09:35:08;;;;;;;31.30;23.15;;;;;;;;;;5041237;28;20077;-76
2021/07/14 09:37:37;;;;;;;33.28;21.95;;;;;;;;;;5041099;28;20033;-76
2021/07/14 09:40:04;;;;;;;29.20;20.52;;;;;;;;;;5034898;28;20045;-76
2021/07/14 09:42:30;;;;;;;34.38;21.83;;;;;;;;;;5037519;28;21883;-76
2021/07/14 09:44:57;;;;;;;32.65;23.50;;;;;;;;;;5037326;28;20071;-76
2021/07/14 09:47:24;;;;;;;35.88;25.30;;;;;;;;;;5032367;28;20052;-76
2021/07/14 09:49:51;;;;;;;40.92;25.50;;;;;;;;;;5034824;28;20036;-76
2021/07/14 09:52:18;;;;;;;34.97;24.42;;;;;;;;;;5033735;28;20045;-76
2021/07/14 09:54:45;;;;;;;33.45;23.98;;;;;;;;;;5035625;28;20049;-76
2021/07/14 09:57:14;;;;;;;37.03;22.95;;;;;;;;;;5043800;28;20145;-76
2021/07/14 09:59:40;;;;;;;35.85;22.35;;;;;;;;;;5032493;28;20041;-76
2021/07/14 10:02:10;;;;;;;35.15;21.58;;;;;;;;;;5040545;28;20140;-76
2021/07/14 10:04:37;;;;;;;35.60;21.60;;;;;;;;;;5039461;28;20053;-81
2021/07/14 10:07:04;;;;;;;35.88;20.75;;;;;;;;;;5042948;28;20045;-76
2021/07/14 10:09:30;;;;;;;30.48;20.40;;;;;;;;;;5043538;28;20120;-76
2021/07/14 10:12:16;;;;;;;31.25;19.90;;;;;;;;;;5040605;28;20037;-76
2021/07/14 10:14:42;;;;;;;33.47;21.60;;;;;;;;;;5042411;28;20377;-76
2021/07/14 10:17:09;;;;;;;32.30;20.75;;;;;;;;;;5041204;28;20090;-76
2021/07/14 10:19:35;;;;;;;29.50;20.23;;;;;;;;;;5039820;28;20117;-77
2021/07/14 10:22:02;;;;;;;30.63;21.35;;;;;;;;;;5039588;28;20076;-78
2021/07/14 10:24:28;;;;;;;28.02;19.85;;;;;;;;;;5038513;28;20037;-78
2021/07/14 10:26:56;;;;;;;32.95;23.38;;;;;;;;;;5037624;28;20489;-78
2021/07/14 10:29:22;;;;;;;35.25;24.70;;;;;;;;;;5040244;28;20041;-78
2021/07/14 10:31:50;;;;;;;40.03;26.85;;;;;;;;;;5039729;28;20049;-78
2021/07/14 10:34:17;;;;;;;36.78;26.10;;;;;;;;;;5037603;28;20216;-77
2021/07/14 10:36:44;;;;;;;35.42;22.65;;;;;;;;;;5037721;28;20048;-78
2021/07/14 10:39:11;;;;;;;30.60;23.08;;;;;;;;;;5041280;28;20057;-78
2021/07/14 10:41:38;;;;;;;34.17;23.15;;;;;;;;;;5041566;28;20551;-78
2021/07/14 10:44:05;;;;;;;35.58;23.45;;;;;;;;;;5039078;28;20052;-78
2021/07/14 10:46:33;;;;;;;31.83;24.02;;;;;;;;;;5040374;28;20143;-78
2021/07/14 10:49:00;;;;;;;32.78;25.90;;;;;;;;;;5039985;28;20138;-78
2021/07/14 10:51:27;;;;;;;35.63;25.92;;;;;;;;;;5035151;28;20435;-79
2021/07/14 10:53:58;;;;;;;33.17;23.00;;;;;;;;;;5036678;28;20045;-78
2021/07/14 10:56:26;;;;;;;32.28;24.30;;;;;;;;;;5037719;28;20098;-78
2021/07/14 10:58:53;;;;;;;33.53;25.88;;;;;;;;;;5037619;28;20122;-78
2021/07/14 11:01:38;;;;;;;32.55;25.23;;;;;;;;;;5038330;28;20044;-78
2021/07/14 11:04:04;;;;;;;39.28;27.02;;;;;;;;;;5036294;28;20114;-78
2021/07/14 11:06:30;;;;;;;34.67;25.83;;;;;;;;;;5037515;28;20055;-78
2021/07/14 11:08:57;;;;;;;34.17;24.35;;;;;;;;;;5041136;28;20417;-78
2021/07/14 11:11:24;;;;;;;37.47;25.23;;;;;;;;;;5040458;28;20190;-78
2021/07/14 11:14:05;;;;;;;34.97;23.77;;;;;;;;;;5039750;28;20056;-78
2021/07/14 11:16:38;;;;;;;34.03;25.08;;;;;;;;;;5039441;28;20093;-78
2021/07/14 11:19:17;;;;;;;41.30;26.38;;;;;;;;;;5040849;28;20095;-78
2021/07/14 11:22:03;;;;;;;40.10;25.77;;;;;;;;;;5039390;28;20436;-78
2021/07/14 11:24:53;;;;;;;40.45;26.08;;;;;;;;;;5038826;28;20148;-78
2021/07/14 11:27:46;;;;;;;39.28;24.58;;;;;;;;;;5040620;28;20121;-78
2021/07/14 11:30:12;;;;;;;34.42;25.60;;;;;;;;;;5043103;28;20491;-78
2021/07/14 11:32:44;;;;;;;35.38;26.77;;;;;;;;;;5037000;28;20094;-78
2021/07/14 11:35:17;;;;;;;40.30;28.10;;;;;;;;;;5036436;28;20048;-78
2021/07/14 11:37:54;;;;;;;40.65;28.77;;;;;;;;;;5040675;28;20068;-78
2021/07/14 11:40:20;;;;;;;41.53;28.92;;;;;;;;;;5038869;28;20084;-78
2021/07/14 11:42:48;;;;;;;35.15;26.23;;;;;;;;;;5042493;28;20068;-78
2021/07/14 11:45:15;;;;;;;37.92;26.75;;;;;;;;;;5043927;28;20504;-78
2021/07/14 11:47:42;;;;;;;34.67;25.30;;;;;;;;;;5041299;28;20174;-78
2021/07/14 11:50:10;;;;;;;37.60;25.40;;;;;;;;;;5042225;28;20412;-78
2021/07/14 11:52:41;;;;;;;32.88;22.92;;;;;;;;;;5046335;28;20124;-78
2021/07/14 11:55:40;;;;;;;31.25;20.40;;;;;;;;;;5043577;28;20044;-78
2021/07/14 11:58:06;;;;;;;28.15;19.08;;;;;;;;;;5047787;28;20064;-78
2021/07/14 12:00:33;;;;;;;29.15;18.17;;;;;;;;;;5040738;28;20041;-78
2021/07/14 12:03:03;;;;;;;27.17;20.10;;;;;;;;;;5031341;28;20048;-78
2021/07/14 12:05:31;;;;;;;31.92;19.58;;;;;;;;;;5042927;28;20053;-78
2021/07/14 12:08:10;;;;;;;30.88;18.75;;;;;;;;;;5038569;28;20049;-78
2021/07/14 12:10:36;;;;;;;30.58;17.80;;;;;;;;;;5040872;28;20274;-78
2021/07/14 12:13:06;;;;;;;27.27;18.13;;;;;;;;;;5041737;28;20060;-78
2021/07/14 12:15:33;;;;;;;30.10;18.25;;;;;;;;;;5039060;28;20166;-78
2021/07/14 12:18:07;;;;;;;22.40;15.98;;;;;;;;;;5046669;28;20040;-78
2021/07/14 12:20:34;;;;;;;26.38;17.80;;;;;;;;;;5041231;28;20122;-78
2021/07/14 12:23:00;;;;;;;27.33;16.80;;;;;;;;;;5046178;28;20053;-79
2021/07/14 12:25:26;;;;;;;28.17;17.17;;;;;;;;;;5045231;28;20064;-78
2021/07/14 12:27:52;;;;;;;28.65;16.98;;;;;;;;;;5042257;28;20037;-78
2021/07/14 12:30:20;;;;;;;26.83;15.90;;;;;;;;;;5038838;28;20049;-78
2021/07/14 12:32:51;;;;;;;26.98;16.73;;;;;;;;;;5038140;28;20061;-78
2021/07/14 12:35:25;;;;;;;25.77;16.23;;;;;;;;;;5041057;28;20451;-78
2021/07/14 12:37:53;;;;;;;27.05;16.83;;;;;;;;;;5040722;28;20099;-78
2021/07/14 12:40:24;;;;;;;23.95;16.67;;;;;;;;;;5035935;28;20067;-78
2021/07/14 12:42:50;;;;;;;25.13;16.83;;;;;;;;;;5038967;28;20055;-79
2021/07/14 12:45:22;;;;;;;24.60;16.13;;;;;;;;;;5044855;28;20412;-78
2021/07/14 12:47:48;;;;;;;23.08;16.70;;;;;;;;;;5040496;28;20499;-78
2021/07/14 12:50:22;;;;;;;29.48;16.42;;;;;;;;;;5045708;28;20048;-78
2021/07/14 12:52:52;;;;;;;22.65;15.48;;;;;;;;;;5042209;28;20393;-78
2021/07/14 12:55:20;;;;;;;22.73;14.45;;;;;;;;;;5035195;28;20037;-78
2021/07/14 12:57:48;;;;;;;19.42;14.63;;;;;;;;;;5035927;28;20046;-78
2021/07/14 13:00:16;;;;;;;25.30;14.02;;;;;;;;;;5039376;28;20107;-79
2021/07/14 13:02:52;;;;;;;19.30;12.45;;;;;;;;;;5046833;28;20044;-79
2021/07/14 13:05:20;;;;;;;20.67;13.07;;;;;;;;;;5042190;28;20063;-79
2021/07/14 13:07:48;;;;;;;22.20;13.23;;;;;;;;;;5038414;28;20049;-78
2021/07/14 13:10:15;;;;;;;18.23;11.18;;;;;;;;;;5042175;28;20059;-79
2021/07/14 13:12:42;;;;;;;18.30;10.35;;;;;;;;;;5042741;28;20457;-79
2021/07/14 13:15:11;;;;;;;17.02;10.20;;;;;;;;;;5034913;28;20480;-79
2021/07/14 13:17:38;;;;;;;14.75;9.07;;;;;;;;;;5046235;28;20041;-79
2021/07/14 13:20:13;;;;;;;16.40;9.43;;;;;;;;;;5044890;28;20049;-79
2021/07/14 13:22:41;;;;;;;20.65;9.77;;;;;;;;;;5046906;28;20106;-79
2021/07/14 13:25:08;;;;;;;15.80;9.02;;;;;;;;;;5043916;28;20041;-79
2021/07/14 13:27:40;;;;;;;16.33;8.40;;;;;;;;;;5043806;28;20127;-79
2021/07/14 13:30:25;;;;;;;15.85;7.97;;;;;;;;;;5036390;28;20049;-79
2021/07/14 13:32:55;;;;;;;18.40;7.53;;;;;;;;;;5034598;28;20318;-79
2021/07/14 13:35:23;;;;;;;17.30;8.23;;;;;;;;;;5044376;28;20059;-79
2021/07/14 13:37:50;;;;;;;15.32;7.93;;;;;;;;;;5035440;28;20095;-79
2021/07/14 13:40:23;;;;;;;20.75;9.00;;;;;;;;;;5036812;28;20551;-78
2021/07/14 13:42:52;;;;;;;12.07;7.35;;;;;;;;;;5041638;28;20223;-79
2021/07/14 13:45:28;;;;;;;26.40;8.73;;;;;;;;;;5039554;28;20069;-79
2021/07/14 13:47:55;;;;;;;16.08;8.00;;;;;;;;;;5039345;28;20496;-79
2021/07/14 13:50:22;;;;;;;16.17;7.50;;;;;;;;;;5042447;28;20448;-79
2021/07/14 13:52:58;;;;;;;14.93;8.10;;;;;;;;;;5043889;28;20060;-78
2021/07/14 13:55:24;;;;;;;19.25;8.40;;;;;;;;;;5044053;28;20422;-78
2021/07/14 13:57:51;;;;;;;17.38;7.88;;;;;;;;;;5043524;28;20033;-79
2021/07/14 14:00:17;;;;;;;16.65;7.55;;;;;;;;;;5046362;28;20045;-79
2021/07/14 14:02:43;;;;;;;12.30;7.47;;;;;;;;;;5045733;28;20045;-78
2021/07/14 14:05:12;;;;;;;17.95;8.32;;;;;;;;;;5040012;28;20124;-78
2021/07/14 14:07:41;;;;;;;15.40;8.40;;;;;;;;;;5039773;28;20029;-78
2021/07/14 14:10:14;;;;;;;13.73;8.27;;;;;;;;;;5044208;28;20059;-78
2021/07/14 14:12:40;;;;;;;;;;;;;;;;;;5041580;28;20464;-78
2021/07/14 14:15:08;;;;;;;14.93;9.27;;;;;;;;;;5039631;28;20215;-78
2021/07/14 14:17:35;;;;;;;14.07;9.15;;;;;;;;;;5038447;28;20033;-78
2021/07/14 14:20:02;;;;;;;18.88;9.60;;;;;;;;;;5041489;28;20041;-78
2021/07/14 14:22:29;;;;;;;15.95;10.70;;;;;;;;;;5036880;28;20131;-79
2021/07/14 14:24:58;;;;;;;14.80;9.70;;;;;;;;;;5045205;28;20045;-78
2021/07/14 14:27:44;;;;;;;17.42;10.50;;;;;;;;;;5034440;28;20096;-78
2021/07/14 14:30:10;;;;;;;15.85;10.55;;;;;;;;;;5029735;28;20405;-78
2021/07/14 14:32:36;;;;;;;16.85;10.98;;;;;;;;;;5039710;28;20158;-78
2021/07/14 14:35:04;;;;;;;15.32;10.57;;;;;;;;;;5032730;28;20501;-78
2021/07/14 14:37:31;;;;;;;18.85;9.57;;;;;;;;;;5037241;28;20533;-78
2021/07/14 14:42:23;;;;;;;13.68;8.90;;;;;;;;;;5044260;28;20055;-78
2021/07/14 14:44:50;;;;;;;15.05;9.55;;;;;;;;;;5048796;28;20044;-79
2021/07/14 14:47:16;;;;;;;19.30;9.60;;;;;;;;;;5042707;28;20128;-78
2021/07/14 14:49:42;;;;;;;14.43;9.57;;;;;;;;;;5036610;28;20346;-78
2021/07/14 14:52:08;;;;;;;15.35;9.40;;;;;;;;;;5045037;28;20036;-78
2021/07/14 14:54:34;;;;;;;19.55;9.90;;;;;;;;;;5040472;28;20443;-78
2021/07/14 14:57:01;;;;;;;19.02;9.80;;;;;;;;;;5038616;28;20162;-78
2021/07/14 14:59:27;;;;;;;16.35;9.82;;;;;;;;;;5035589;28;20133;-78
2021/07/14 15:01:54;;;;;;;15.90;10.27;;;;;;;;;;5038966;28;20095;-78
2021/07/14 15:04:21;;;;;;;18.65;11.88;;;;;;;;;;5041912;28;20121;-78
2021/07/14 15:06:47;;;;;;;16.15;11.43;;;;;;;;;;5041225;28;20140;-78
2021/07/14 15:09:14;;;;;;;22.58;12.05;;;;;;;;;;5038883;28;20061;-78
2021/07/14 15:11:40;;;;;;;24.50;12.60;;;;;;;;;;5036961;28;20125;-78
2021/07/14 15:14:06;;;;;;;21.27;12.52;;;;;;;;;;5038940;28;20076;-75
2021/07/14 15:16:33;;;;;;;21.00;12.52;;;;;;;;;;5039787;28;20106;-74
2021/07/14 15:19:00;;;;;;;17.95;12.68;;;;;;;;;;5038710;28;20047;-73
2021/07/14 15:21:28;;;;;;;19.52;13.15;;;;;;;;;;5042229;28;20059;-74
2021/07/14 15:23:56;;;;;;;25.02;14.88;;;;;;;;;;5045193;28;20041;-74
2021/07/14 15:29:08;;;;;;;26.13;15.73;;;;;;;;;;5044273;28;20143;-74
2021/07/14 15:31:35;;;;;;;24.98;14.82;;;;;;;;;;5044016;28;20057;-74
2021/07/14 15:34:03;;;;;;;21.70;14.20;;;;;;;;;;5043757;28;20045;-74
2021/07/14 15:36:29;;;;;;;19.52;14.35;;;;;;;;;;5042323;28;20049;-74
2021/07/14 15:38:57;;;;;;;22.27;14.52;;;;;;;;;;5042076;28;20079;-74
2021/07/14 15:41:23;;;;;;;23.52;15.00;;;;;;;;;;5041997;28;20045;-74
2021/07/14 15:43:50;;;;;;;21.23;14.07;;;;;;;;;;5050677;28;20049;-74
2021/07/14 15:46:17;;;;;;;19.50;13.80;;;;;;;;;;5044542;28;20060;-74
2021/07/14 15:48:43;;;;;;;20.05;13.95;;;;;;;;;;5045752;28;20142;-74
2021/07/14 15:51:09;;;;;;;23.60;15.60;;;;;;;;;;5045124;28;20085;-74
2021/07/14 15:53:36;;;;;;;20.08;15.45;;;;;;;;;;5041459;28;20043;-74
2021/07/14 15:56:02;;;;;;;23.38;15.40;;;;;;;;;;5045536;28;20496;-74
2021/07/14 15:58:28;;;;;;;24.45;15.70;;;;;;;;;;5038267;28;20037;-74
2021/07/14 16:00:54;;;;;;;21.83;16.15;;;;;;;;;;5045160;28;20073;-74